sensor_id;sensor_type;location;lat;lon;timestamp;P1;durP1;ratioP1;P2;durP2;ratioP2
11642;SDS011;5877;50.930;6.918;2023-05-10T00:03:09;6.80;;;6.30;;
11642;SDS011;5877;50.930;6.918;2023-05-10T00:08:02;7.72;;;7.03;;
11642;SDS011;5877;50.930;6.918;2023-05-10T00:12:54;7.28;;;6.68;;
11642;SDS011;5877;50.930;6.918;2023-05-10T00:17:47;7.32;;;6.82;;
11642;SDS011;5877;50.930;6.918;2023-05-10T00:22:39;7.72;;;7.03;;
11642;SDS011;5877;50.930;6.918;2023-05-10T00:27:32;8.37;;;7.70;;
11642;SDS011;5877;50.930;6.918;2023-05-10T00:32:24;8.82;;;8.07;;
11642;SDS011;5877;50.930;6.918;2023-05-10T00:37:19;8.65;;;7.95;;
11642;SDS011;5877;50.930;6.918;2023-05-10T00:42:11;9.18;;;8.38;;
11642;SDS011;5877;50.930;6.918;2023-05-10T00:47:05;9.30;;;8.50;;
11642;SDS011;5877;50.930;6.918;2023-05-10T00:51:57;9.87;;;9.07;;
11642;SDS011;5877;50.930;6.918;2023-05-10T00:56:50;9.95;;;9.05;;
11642;SDS011;5877;50.930;6.918;2023-05-10T01:01:45;9.90;;;9.00;;
11642;SDS011;5877;50.930;6.918;2023-05-10T01:06:39;10.00;;;9.20;;
11642;SDS011;5877;50.930;6.918;2023-05-10T01:11:32;10.40;;;9.52;;
11642;SDS011;5877;50.930;6.918;2023-05-10T01:16:27;10.23;;;9.33;;
11642;SDS011;5877;50.930;6.918;2023-05-10T01:21:27;10.30;;;9.40;;
11642;SDS011;5877;50.930;6.918;2023-05-10T01:31:59;8.80;;;8.00;;
11642;SDS011;5877;50.930;6.918;2023-05-10T01:37:16;10.57;;;9.57;;
11642;SDS011;5877;50.930;6.918;2023-05-10T01:42:16;9.60;;;8.80;;
11642;SDS011;5877;50.930;6.918;2023-05-10T01:47:12;8.65;;;7.90;;
11642;SDS011;5877;50.930;6.918;2023-05-10T01:52:09;8.95;;;8.20;;
11642;SDS011;5877;50.930;6.918;2023-05-10T01:57:06;8.17;;;6.97;;
11642;SDS011;5877;50.930;6.918;2023-05-10T02:02:01;8.80;;;8.00;;
11642;SDS011;5877;50.930;6.918;2023-05-10T02:06:57;8.07;;;7.38;;
11642;SDS011;5877;50.930;6.918;2023-05-10T02:11:49;8.47;;;7.67;;
11642;SDS011;5877;50.930;6.918;2023-05-10T02:16:42;9.35;;;8.57;;
11642;SDS011;5877;50.930;6.918;2023-05-10T02:21:40;9.02;;;8.23;;
11642;SDS011;5877;50.930;6.918;2023-05-10T02:26:37;8.70;;;8.00;;
11642;SDS011;5877;50.930;6.918;2023-05-10T02:31:32;8.68;;;7.88;;
11642;SDS011;5877;50.930;6.918;2023-05-10T02:36:25;7.60;;;7.00;;
11642;SDS011;5877;50.930;6.918;2023-05-10T02:41:19;6.65;;;6.15;;
11642;SDS011;5877;50.930;6.918;2023-05-10T02:46:16;6.72;;;6.10;;
11642;SDS011;5877;50.930;6.918;2023-05-10T02:51:09;6.27;;;5.77;;
11642;SDS011;5877;50.930;6.918;2023-05-10T02:56:05;5.22;;;4.82;;
11642;SDS011;5877;50.930;6.918;2023-05-10T03:01:04;5.80;;;5.30;;
11642;SDS011;5877;50.930;6.918;2023-05-10T03:05:56;5.57;;;5.10;;
11642;SDS011;5877;50.930;6.918;2023-05-10T03:10:55;4.82;;;4.43;;
11642;SDS011;5877;50.930;6.918;2023-05-10T03:16:05;4.80;;;4.40;;
11642;SDS011;5877;50.930;6.918;2023-05-10T03:21:02;5.00;;;4.60;;
11642;SDS011;5877;50.930;6.918;2023-05-10T03:25:58;5.35;;;4.95;;
11642;SDS011;5877;50.930;6.918;2023-05-10T03:30:52;6.22;;;5.63;;
11642;SDS011;5877;50.930;6.918;2023-05-10T03:35:46;6.47;;;5.97;;
11642;SDS011;5877;50.930;6.918;2023-05-10T03:41:22;7.30;;;6.70;;
11642;SDS011;5877;50.930;6.918;2023-05-10T03:46:18;8.73;;;7.97;;
11642;SDS011;5877;50.930;6.918;2023-05-10T03:51:10;8.85;;;8.00;;
11642;SDS011;5877;50.930;6.918;2023-05-10T03:56:07;9.35;;;8.45;;
11642;SDS011;5877;50.930;6.918;2023-05-10T04:01:00;9.70;;;8.73;;
11642;SDS011;5877;50.930;6.918;2023-05-10T04:06:00;9.63;;;8.73;;
11642;SDS011;5877;50.930;6.918;2023-05-10T04:10:53;9.95;;;9.05;;
11642;SDS011;5877;50.930;6.918;2023-05-10T04:15:45;9.85;;;9.02;;
11642;SDS011;5877;50.930;6.918;2023-05-10T04:20:37;9.80;;;8.90;;
11642;SDS011;5877;50.930;6.918;2023-05-10T04:25:29;10.13;;;9.23;;
11642;SDS011;5877;50.930;6.918;2023-05-10T04:30:21;9.88;;;8.88;;
11642;SDS011;5877;50.930;6.918;2023-05-10T04:35:13;11.15;;;9.43;;
11642;SDS011;5877;50.930;6.918;2023-05-10T04:40:06;11.10;;;9.20;;
11642;SDS011;5877;50.930;6.918;2023-05-10T04:44:59;10.73;;;9.63;;
11642;SDS011;5877;50.930;6.918;2023-05-10T04:49:50;11.18;;;10.07;;
11642;SDS011;5877;50.930;6.918;2023-05-10T04:54:42;10.43;;;9.15;;
11642;SDS011;5877;50.930;6.918;2023-05-10T04:59:35;10.70;;;9.53;;
11642;SDS011;5877;50.930;6.918;2023-05-10T05:04:28;10.30;;;9.30;;
11642;SDS011;5877;50.930;6.918;2023-05-10T05:09:21;10.82;;;9.30;;
11642;SDS011;5877;50.930;6.918;2023-05-10T05:14:13;12.05;;;10.45;;
11642;SDS011;5877;50.930;6.918;2023-05-10T05:19:06;11.45;;;9.82;;
11642;SDS011;5877;50.930;6.918;2023-05-10T05:23:58;10.60;;;8.93;;
11642;SDS011;5877;50.930;6.918;2023-05-10T05:28:50;10.93;;;9.63;;
11642;SDS011;5877;50.930;6.918;2023-05-10T05:33:45;12.90;;;9.88;;
11642;SDS011;5877;50.930;6.918;2023-05-10T05:38:38;10.40;;;8.80;;
11642;SDS011;5877;50.930;6.918;2023-05-10T05:43:30;10.95;;;9.48;;
11642;SDS011;5877;50.930;6.918;2023-05-10T05:48:22;10.38;;;8.90;;
11642;SDS011;5877;50.930;6.918;2023-05-10T05:53:14;13.70;;;9.38;;
11642;SDS011;5877;50.930;6.918;2023-05-10T05:58:07;10.68;;;9.18;;
11642;SDS011;5877;50.930;6.918;2023-05-10T06:02:59;10.57;;;9.40;;
11642;SDS011;5877;50.930;6.918;2023-05-10T06:07:51;11.25;;;9.60;;
11642;SDS011;5877;50.930;6.918;2023-05-10T06:12:44;11.50;;;8.70;;
11642;SDS011;5877;50.930;6.918;2023-05-10T06:17:37;11.00;;;9.23;;
11642;SDS011;5877;50.930;6.918;2023-05-10T06:22:30;11.35;;;9.38;;
11642;SDS011;5877;50.930;6.918;2023-05-10T06:27:23;11.07;;;8.80;;
11642;SDS011;5877;50.930;6.918;2023-05-10T06:32:16;11.35;;;8.77;;
11642;SDS011;5877;50.930;6.918;2023-05-10T06:37:08;10.63;;;9.07;;
11642;SDS011;5877;50.930;6.918;2023-05-10T06:42:02;12.43;;;9.75;;
11642;SDS011;5877;50.930;6.918;2023-05-10T06:46:56;12.07;;;9.00;;
11642;SDS011;5877;50.930;6.918;2023-05-10T06:51:48;11.23;;;9.33;;
11642;SDS011;5877;50.930;6.918;2023-05-10T06:56:40;10.77;;;9.68;;
11642;SDS011;5877;50.930;6.918;2023-05-10T07:01:32;12.00;;;9.43;;
11642;SDS011;5877;50.930;6.918;2023-05-10T07:06:24;12.57;;;10.47;;
11642;SDS011;5877;50.930;6.918;2023-05-10T07:11:25;14.63;;;10.15;;
11642;SDS011;5877;50.930;6.918;2023-05-10T07:16:17;12.47;;;10.27;;
11642;SDS011;5877;50.930;6.918;2023-05-10T07:21:11;12.93;;;10.60;;
11642;SDS011;5877;50.930;6.918;2023-05-10T07:26:05;10.88;;;9.75;;
11642;SDS011;5877;50.930;6.918;2023-05-10T07:30:59;12.05;;;9.40;;
11642;SDS011;5877;50.930;6.918;2023-05-10T07:35:51;10.60;;;9.45;;
11642;SDS011;5877;50.930;6.918;2023-05-10T07:40:47;13.10;;;9.60;;
11642;SDS011;5877;50.930;6.918;2023-05-10T07:45:39;10.32;;;9.23;;
11642;SDS011;5877;50.930;6.918;2023-05-10T07:50:32;11.48;;;10.20;;
11642;SDS011;5877;50.930;6.918;2023-05-10T07:55:26;11.55;;;9.40;;
11642;SDS011;5877;50.930;6.918;2023-05-10T08:00:19;11.77;;;9.13;;
11642;SDS011;5877;50.930;6.918;2023-05-10T08:05:13;9.50;;;8.47;;
11642;SDS011;5877;50.930;6.918;2023-05-10T08:10:07;8.52;;;7.60;;
11642;SDS011;5877;50.930;6.918;2023-05-10T08:15:01;7.80;;;6.97;;
11642;SDS011;5877;50.930;6.918;2023-05-10T08:19:53;8.38;;;6.88;;
11642;SDS011;5877;50.930;6.918;2023-05-10T08:24:45;6.63;;;6.03;;
11642;SDS011;5877;50.930;6.918;2023-05-10T08:29:42;5.30;;;4.80;;
11642;SDS011;5877;50.930;6.918;2023-05-10T08:34:40;6.65;;;5.93;;
11642;SDS011;5877;50.930;6.918;2023-05-10T08:39:34;7.38;;;6.03;;
11642;SDS011;5877;50.930;6.918;2023-05-10T08:44:26;6.97;;;6.10;;
11642;SDS011;5877;50.930;6.918;2023-05-10T08:49:18;6.70;;;6.10;;
11642;SDS011;5877;50.930;6.918;2023-05-10T08:54:11;6.95;;;6.18;;
11642;SDS011;5877;50.930;6.918;2023-05-10T08:59:04;7.40;;;6.60;;
11642;SDS011;5877;50.930;6.918;2023-05-10T09:03:57;6.77;;;6.17;;
11642;SDS011;5877;50.930;6.918;2023-05-10T09:08:50;6.37;;;5.77;;
11642;SDS011;5877;50.930;6.918;2023-05-10T09:13:44;6.27;;;5.67;;
11642;SDS011;5877;50.930;6.918;2023-05-10T09:18:37;6.73;;;6.13;;
11642;SDS011;5877;50.930;6.918;2023-05-10T09:23:29;6.60;;;6.00;;
11642;SDS011;5877;50.930;6.918;2023-05-10T09:28:23;5.50;;;5.00;;
11642;SDS011;5877;50.930;6.918;2023-05-10T09:33:16;10.07;;;9.27;;
11642;SDS011;5877;50.930;6.918;2023-05-10T09:38:09;7.10;;;6.40;;
11642;SDS011;5877;50.930;6.918;2023-05-10T09:43:07;8.38;;;7.57;;
11642;SDS011;5877;50.930;6.918;2023-05-10T09:48:04;9.23;;;8.33;;
11642;SDS011;5877;50.930;6.918;2023-05-10T17:21:43;3.42;;;1.80;;
11642;SDS011;5877;50.930;6.918;2023-05-10T17:26:36;4.10;;;2.80;;
11642;SDS011;5877;50.930;6.918;2023-05-10T17:31:31;3.15;;;2.80;;
11642;SDS011;5877;50.930;6.918;2023-05-10T17:36:29;3.80;;;2.20;;
11642;SDS011;5877;50.930;6.918;2023-05-10T17:41:23;2.17;;;1.80;;
11642;SDS011;5877;50.930;6.918;2023-05-10T17:46:16;2.90;;;1.83;;
11642;SDS011;5877;50.930;6.918;2023-05-10T17:51:13;1.90;;;1.58;;
11642;SDS011;5877;50.930;6.918;2023-05-10T17:56:12;2.73;;;1.90;;
11642;SDS011;5877;50.930;6.918;2023-05-10T18:01:39;2.88;;;2.00;;
11642;SDS011;5877;50.930;6.918;2023-05-10T18:06:35;2.57;;;1.67;;
11642;SDS011;5877;50.930;6.918;2023-05-10T18:11:28;2.20;;;2.00;;
11642;SDS011;5877;50.930;6.918;2023-05-10T18:16:22;2.80;;;1.90;;
11642;SDS011;5877;50.930;6.918;2023-05-10T18:21:15;2.70;;;1.50;;
11642;SDS011;5877;50.930;6.918;2023-05-10T18:26:09;1.57;;;1.30;;
11642;SDS011;5877;50.930;6.918;2023-05-10T18:31:09;4.20;;;1.70;;
11642;SDS011;5877;50.930;6.918;2023-05-10T18:36:09;2.73;;;1.90;;
11642;SDS011;5877;50.930;6.918;2023-05-10T18:41:02;2.70;;;2.50;;
11642;SDS011;5877;50.930;6.918;2023-05-10T18:45:57;4.67;;;3.63;;
11642;SDS011;5877;50.930;6.918;2023-05-10T18:50:51;4.57;;;4.10;;
11642;SDS011;5877;50.930;6.918;2023-05-10T18:55:44;5.80;;;4.97;;
11642;SDS011;5877;50.930;6.918;2023-05-10T19:00:40;4.13;;;3.70;;
11642;SDS011;5877;50.930;6.918;2023-05-10T19:05:33;8.63;;;7.83;;
11642;SDS011;5877;50.930;6.918;2023-05-10T19:10:32;4.93;;;4.17;;
11642;SDS011;5877;50.930;6.918;2023-05-10T19:15:35;4.83;;;4.30;;
11642;SDS011;5877;50.930;6.918;2023-05-10T19:20:29;4.50;;;3.90;;
11642;SDS011;5877;50.930;6.918;2023-05-10T19:25:21;4.30;;;3.73;;
11642;SDS011;5877;50.930;6.918;2023-05-10T19:30:15;4.00;;;3.40;;
11642;SDS011;5877;50.930;6.918;2023-05-10T19:35:07;3.80;;;3.50;;
11642;SDS011;5877;50.930;6.918;2023-05-10T19:40:00;6.37;;;4.17;;
11642;SDS011;5877;50.930;6.918;2023-05-10T19:44:52;9.13;;;8.00;;
11642;SDS011;5877;50.930;6.918;2023-05-10T19:49:45;8.10;;;7.30;;
11642;SDS011;5877;50.930;6.918;2023-05-10T19:54:38;8.27;;;7.43;;
11642;SDS011;5877;50.930;6.918;2023-05-10T19:59:33;12.87;;;11.30;;
11642;SDS011;5877;50.930;6.918;2023-05-10T20:04:27;9.77;;;8.57;;
11642;SDS011;5877;50.930;6.918;2023-05-10T20:09:20;9.70;;;8.67;;
11642;SDS011;5877;50.930;6.918;2023-05-10T20:14:14;10.10;;;9.10;;
11642;SDS011;5877;50.930;6.918;2023-05-10T20:19:10;16.73;;;12.67;;
11642;SDS011;5877;50.930;6.918;2023-05-10T20:24:05;12.10;;;10.60;;
11642;SDS011;5877;50.930;6.918;2023-05-10T20:29:01;8.70;;;7.80;;
11642;SDS011;5877;50.930;6.918;2023-05-10T20:33:55;9.03;;;7.83;;
11642;SDS011;5877;50.930;6.918;2023-05-10T20:38:51;13.23;;;10.60;;
11642;SDS011;5877;50.930;6.918;2023-05-10T20:43:44;11.35;;;10.15;;
11642;SDS011;5877;50.930;6.918;2023-05-10T20:48:43;11.35;;;10.25;;
11642;SDS011;5877;50.930;6.918;2023-05-10T20:53:36;12.33;;;10.93;;
11642;SDS011;5877;50.930;6.918;2023-05-10T20:58:30;12.48;;;10.88;;
11642;SDS011;5877;50.930;6.918;2023-05-10T21:03:22;12.40;;;11.17;;
11642;SDS011;5877;50.930;6.918;2023-05-10T21:08:17;11.20;;;10.10;;
11642;SDS011;5877;50.930;6.918;2023-05-10T21:13:09;11.05;;;10.05;;
11642;SDS011;5877;50.930;6.918;2023-05-10T21:18:03;11.82;;;10.73;;
11642;SDS011;5877;50.930;6.918;2023-05-10T21:22:55;11.85;;;10.75;;
11642;SDS011;5877;50.930;6.918;2023-05-10T21:27:48;13.05;;;11.85;;
11642;SDS011;5877;50.930;6.918;2023-05-10T21:32:41;13.60;;;12.30;;
11642;SDS011;5877;50.930;6.918;2023-05-10T21:37:33;11.05;;;10.05;;
11642;SDS011;5877;50.930;6.918;2023-05-10T21:42:25;12.53;;;11.30;;
11642;SDS011;5877;50.930;6.918;2023-05-10T21:47:19;15.23;;;13.70;;
11642;SDS011;5877;50.930;6.918;2023-05-10T21:52:11;15.40;;;13.80;;
11642;SDS011;5877;50.930;6.918;2023-05-10T21:57:03;16.05;;;14.45;;
11642;SDS011;5877;50.930;6.918;2023-05-10T22:01:55;16.67;;;14.87;;
11642;SDS011;5877;50.930;6.918;2023-05-10T22:06:52;16.45;;;14.68;;
11642;SDS011;5877;50.930;6.918;2023-05-10T22:11:48;16.75;;;15.05;;
11642;SDS011;5877;50.930;6.918;2023-05-10T22:16:40;16.55;;;14.95;;
11642;SDS011;5877;50.930;6.918;2023-05-10T22:21:32;16.98;;;15.27;;
11642;SDS011;5877;50.930;6.918;2023-05-10T22:26:25;16.50;;;14.87;;
11642;SDS011;5877;50.930;6.918;2023-05-10T22:31:17;16.30;;;14.60;;
11642;SDS011;5877;50.930;6.918;2023-05-10T22:36:10;16.52;;;14.82;;
11642;SDS011;5877;50.930;6.918;2023-05-10T22:41:03;16.48;;;14.88;;
11642;SDS011;5877;50.930;6.918;2023-05-10T22:45:57;16.13;;;14.52;;
11642;SDS011;5877;50.930;6.918;2023-05-10T22:50:50;15.68;;;14.07;;
11642;SDS011;5877;50.930;6.918;2023-05-10T22:55:43;16.23;;;14.52;;
11642;SDS011;5877;50.930;6.918;2023-05-10T23:00:36;15.52;;;13.98;;
11642;SDS011;5877;50.930;6.918;2023-05-10T23:05:31;10.90;;;8.95;;
11642;SDS011;5877;50.930;6.918;2023-05-10T23:10:24;7.43;;;6.50;;
11642;SDS011;5877;50.930;6.918;2023-05-10T23:15:17;5.53;;;4.00;;
11642;SDS011;5877;50.930;6.918;2023-05-10T23:20:10;5.00;;;3.60;;
11642;SDS011;5877;50.930;6.918;2023-05-10T23:25:05;4.67;;;3.73;;
11642;SDS011;5877;50.930;6.918;2023-05-10T23:29:57;5.73;;;4.10;;
11642;SDS011;5877;50.930;6.918;2023-05-10T23:34:49;5.33;;;4.37;;
11642;SDS011;5877;50.930;6.918;2023-05-10T23:39:41;7.17;;;4.30;;
11642;SDS011;5877;50.930;6.918;2023-05-10T23:44:34;2.50;;;2.30;;
11642;SDS011;5877;50.930;6.918;2023-05-10T23:49:27;2.47;;;1.27;;
11642;SDS011;5877;50.930;6.918;2023-05-10T23:54:20;2.93;;;1.50;;
11642;SDS011;5877;50.930;6.918;2023-05-10T23:59:12;1.50;;;1.20;;
